createdAt,value
2022-08-14T00:02:01.637Z,6.80
2022-08-14T00:04:35.863Z,6.43
2022-08-14T00:07:11.079Z,6.68
2022-08-14T00:09:39.662Z,6.60
2022-08-14T00:12:33.062Z,6.60
2022-08-14T00:15:16.082Z,6.53
2022-08-14T00:17:48.221Z,7.22
2022-08-14T00:20:30.887Z,6.72
2022-08-14T00:23:12.059Z,7.07
2022-08-14T00:25:42.936Z,6.57
2022-08-14T00:28:15.513Z,6.90
2022-08-14T00:30:47.338Z,6.63
2022-08-14T00:33:16.573Z,7.25
2022-08-14T00:36:39.428Z,6.88
2022-08-14T00:38:34.710Z,6.90
2022-08-14T00:41:07.243Z,6.88
2022-08-14T00:43:41.789Z,6.78
2022-08-14T00:46:32.266Z,6.45
2022-08-14T00:49:00.179Z,6.68
2022-08-14T00:51:36.853Z,7.28
2022-08-14T00:54:17.019Z,6.88
2022-08-14T00:56:55.706Z,7.22
2022-08-14T00:59:25.337Z,6.65
2022-08-14T01:01:57.216Z,7.28
2022-08-14T01:04:37.821Z,7.18
2022-08-14T01:07:20.918Z,7.55
2022-08-14T01:10:02.331Z,7.78
2022-08-14T01:12:32.824Z,7.60
2022-08-14T01:15:02.125Z,7.50
2022-08-14T01:17:51.887Z,7.65
2022-08-14T01:20:41.153Z,7.70
2022-08-14T01:23:16.820Z,7.10
2022-08-14T01:25:51.301Z,7.72
2022-08-14T01:28:46.980Z,7.35
2022-08-14T01:31:14.402Z,6.75
2022-08-14T01:34:00.539Z,7.78
2022-08-14T01:36:39.657Z,7.18
2022-08-14T01:39:12.943Z,7.47
2022-08-14T01:41:50.085Z,7.18
2022-08-14T01:44:32.059Z,7.13
2022-08-14T01:47:19.579Z,7.90
2022-08-14T01:50:01.365Z,8.02
2022-08-14T01:52:58.585Z,7.05
2022-08-14T01:55:30.733Z,7.95
2022-08-14T01:58:02.160Z,7.68
2022-08-14T02:00:47.861Z,7.18
2022-08-14T02:03:16.234Z,6.90
2022-08-14T02:05:43.792Z,7.05
2022-08-14T02:08:10.821Z,7.43
2022-08-14T02:10:46.972Z,7.30
2022-08-14T02:13:17.255Z,7.68
2022-08-14T02:15:45.766Z,8.10
2022-08-14T02:18:16.530Z,8.10
2022-08-14T02:20:47.828Z,8.75
2022-08-14T02:23:28.972Z,7.75
2022-08-14T02:26:24.369Z,7.72
2022-08-14T02:29:00.353Z,7.72
2022-08-14T02:31:36.394Z,8.32
2022-08-14T02:34:21.745Z,7.50
2022-08-14T02:37:03.832Z,7.30
2022-08-14T02:39:37.139Z,7.93
2022-08-14T02:42:40.255Z,7.43
2022-08-14T02:45:47.694Z,7.63
2022-08-14T02:49:04.190Z,7.97
2022-08-14T02:51:08.988Z,8.35
2022-08-14T02:53:39.883Z,8.30
2022-08-14T02:56:29.949Z,8.50
2022-08-14T02:59:02.001Z,8.73
2022-08-14T03:01:43.689Z,9.27
2022-08-14T03:04:20.611Z,8.70
2022-08-14T03:06:57.501Z,8.52
2022-08-14T03:10:26.930Z,8.52
2022-08-14T03:12:31.846Z,9.07
2022-08-14T03:15:03.269Z,8.60
2022-08-14T03:17:32.086Z,8.90
2022-08-14T03:20:18.705Z,9.20
2022-08-14T03:22:50.962Z,9.30
2022-08-14T03:25:18.098Z,9.13
2022-08-14T03:27:48.643Z,8.95
2022-08-14T03:30:37.135Z,9.05
2022-08-14T03:33:10.739Z,8.65
2022-08-14T03:36:05.162Z,8.70
2022-08-14T03:39:15.483Z,8.65
2022-08-14T03:41:23.150Z,9.30
2022-08-14T03:44:01.099Z,9.30
2022-08-14T03:46:54.655Z,9.32
2022-08-14T03:49:29.236Z,9.27
2022-08-14T03:52:17.818Z,8.73
2022-08-14T03:54:52.884Z,8.48
2022-08-14T03:57:22.718Z,8.75
2022-08-14T03:59:51.242Z,9.38
2022-08-14T04:02:32.901Z,8.98
2022-08-14T04:05:08.196Z,8.95
2022-08-14T04:07:49.732Z,9.32
2022-08-14T04:10:32.101Z,9.20
2022-08-14T04:13:03.656Z,8.98
2022-08-14T04:15:52.800Z,9.23
2022-08-14T04:18:23.280Z,9.68
2022-08-14T04:20:54.315Z,9.23
2022-08-14T04:23:29.494Z,10.05
2022-08-14T04:26:01.200Z,10.00
2022-08-14T04:29:05.418Z,9.95
2022-08-14T04:31:18.045Z,9.65
2022-08-14T04:33:52.968Z,9.63
2022-08-14T04:36:20.419Z,9.98
2022-08-14T04:39:12.166Z,10.20
2022-08-14T04:42:02.128Z,9.10
2022-08-14T04:44:36.908Z,9.65
2022-08-14T04:47:23.683Z,9.25
2022-08-14T04:49:56.932Z,9.50
2022-08-14T04:52:25.641Z,10.07
2022-08-14T04:54:54.648Z,9.82
2022-08-14T04:57:22.743Z,9.32
2022-08-14T04:59:50.827Z,9.77
2022-08-14T05:02:18.231Z,10.00
2022-08-14T05:04:58.611Z,10.52
2022-08-14T05:07:47.048Z,9.57
2022-08-14T05:10:16.727Z,9.52
2022-08-14T05:13:24.369Z,9.73
2022-08-14T05:15:39.393Z,8.88
2022-08-14T05:18:17.629Z,10.10
2022-08-14T05:21:10.862Z,9.40
2022-08-14T05:23:50.164Z,10.15
2022-08-14T05:26:18.238Z,9.35
2022-08-14T05:28:46.960Z,8.93
2022-08-14T05:31:20.810Z,9.82
2022-08-14T05:33:54.639Z,8.95
2022-08-14T05:36:25.139Z,9.50
2022-08-14T05:38:53.308Z,9.32
2022-08-14T05:41:21.876Z,9.30
2022-08-14T05:43:50.968Z,10.40
2022-08-14T05:46:23.310Z,9.85
2022-08-14T05:48:53.593Z,9.45
2022-08-14T05:51:22.581Z,9.75
2022-08-14T05:54:00.038Z,10.32
2022-08-14T05:56:29.600Z,10.25
2022-08-14T05:58:57.161Z,9.93
2022-08-14T06:01:31.569Z,9.57
2022-08-14T06:04:00.746Z,11.43
2022-08-14T06:06:31.690Z,10.80
2022-08-14T06:09:02.182Z,9.70
2022-08-14T06:11:31.221Z,10.85
2022-08-14T06:13:58.746Z,10.75
2022-08-14T06:16:26.294Z,9.63
2022-08-14T06:18:53.442Z,10.32
2022-08-14T06:21:22.883Z,10.43
2022-08-14T06:23:50.382Z,10.02
2022-08-14T06:26:20.477Z,9.95
2022-08-14T06:28:48.341Z,9.60
2022-08-14T06:31:22.872Z,11.00
2022-08-14T06:35:11.583Z,10.80
2022-08-14T06:36:39.803Z,10.52
2022-08-14T06:39:10.367Z,11.70
2022-08-14T06:41:58.272Z,11.43
2022-08-14T06:44:32.507Z,10.75
2022-08-14T06:47:01.600Z,10.50
2022-08-14T06:49:30.396Z,10.93
2022-08-14T06:51:57.691Z,11.00
2022-08-14T06:54:31.590Z,11.20
2022-08-14T06:57:00.389Z,10.82
2022-08-14T06:59:29.004Z,9.52
2022-08-14T07:02:17.961Z,10.07
2022-08-14T07:05:06.232Z,10.40
2022-08-14T07:07:39.291Z,10.35
2022-08-14T07:10:08.377Z,9.85
2022-08-14T07:13:00.940Z,9.75
2022-08-14T07:18:01.641Z,8.35
2022-08-14T07:20:30.919Z,8.80
2022-08-14T07:23:08.468Z,9.45
2022-08-14T07:25:38.087Z,9.70
2022-08-14T07:28:20.786Z,9.00
2022-08-14T07:30:50.724Z,8.38
2022-08-14T07:33:24.872Z,9.57
2022-08-14T07:35:59.407Z,8.77
2022-08-14T07:38:36.331Z,8.68
2022-08-14T07:41:11.897Z,9.07
2022-08-14T07:43:43.005Z,8.25
2022-08-14T07:46:11.335Z,8.40
2022-08-14T07:48:41.536Z,8.60
2022-08-14T07:51:10.831Z,8.20
2022-08-14T07:53:41.130Z,7.97
2022-08-14T07:56:21.871Z,8.45
2022-08-14T07:58:58.863Z,7.38
2022-08-14T08:01:27.807Z,6.85
2022-08-14T08:04:00.177Z,7.18
2022-08-14T08:06:29.005Z,7.15
2022-08-14T08:09:01.102Z,6.93
2022-08-14T08:11:37.638Z,7.07
2022-08-14T08:14:10.820Z,6.95
2022-08-14T08:16:51.145Z,6.43
2022-08-14T08:19:19.325Z,5.82
2022-08-14T08:21:47.657Z,5.68
2022-08-14T08:24:19.706Z,5.80
2022-08-14T08:26:50.459Z,5.22
2022-08-14T08:29:29.090Z,6.00
2022-08-14T08:32:01.803Z,5.15
2022-08-14T08:34:45.087Z,5.13
2022-08-14T08:37:16.080Z,5.22
2022-08-14T08:40:02.614Z,5.43
2022-08-14T08:42:38.817Z,5.30
2022-08-14T08:45:18.967Z,5.60
2022-08-14T08:47:46.605Z,5.35
2022-08-14T08:53:10.329Z,5.32
2022-08-14T08:55:40.957Z,5.25
2022-08-14T08:58:19.822Z,5.65
2022-08-14T09:00:55.302Z,4.53
2022-08-14T09:03:27.947Z,5.55
2022-08-14T09:06:56.887Z,5.78
2022-08-14T09:08:54.424Z,6.07
2022-08-14T09:11:24.434Z,5.80
2022-08-14T09:13:52.958Z,5.15
2022-08-14T09:16:25.286Z,5.28
2022-08-14T09:18:54.865Z,5.95
2022-08-14T09:21:25.008Z,4.78
2022-08-14T09:24:28.183Z,5.18
2022-08-14T09:26:49.591Z,5.05
2022-08-14T09:29:22.786Z,4.50
2022-08-14T09:31:57.668Z,3.75
2022-08-14T09:34:58.025Z,4.45
2022-08-14T09:38:05.304Z,3.88
2022-08-14T09:40:33.398Z,4.07
2022-08-14T09:43:12.322Z,4.63
2022-08-14T09:45:52.893Z,4.00
2022-08-14T09:48:27.740Z,4.53
2022-08-14T09:54:18.780Z,4.10
2022-08-14T09:56:30.943Z,4.03
2022-08-14T09:59:12.982Z,5.07
2022-08-14T10:01:46.191Z,4.78
2022-08-14T10:04:36.030Z,4.13
2022-08-14T10:07:08.085Z,4.20
2022-08-14T10:09:59.803Z,4.88
2022-08-14T10:12:54.676Z,4.88
2022-08-14T10:15:25.966Z,5.07
2022-08-14T10:18:18.193Z,5.47
2022-08-14T10:21:00.933Z,5.63
2022-08-14T10:23:40.499Z,5.38
2022-08-14T10:26:11.943Z,5.65
2022-08-14T10:29:17.895Z,5.55
2022-08-14T10:31:44.781Z,5.88
2022-08-14T10:34:20.241Z,5.22
2022-08-14T10:37:04.110Z,5.07
2022-08-14T10:39:51.344Z,5.35
2022-08-14T10:42:41.615Z,5.55
2022-08-14T10:45:23.067Z,5.28
2022-08-14T10:48:08.835Z,4.65
2022-08-14T10:50:45.906Z,4.93
2022-08-14T10:53:14.248Z,4.90
2022-08-14T10:55:45.579Z,5.20
2022-08-14T10:58:15.035Z,5.10
2022-08-14T11:00:56.779Z,5.28
2022-08-14T11:03:26.694Z,5.10
2022-08-14T11:06:20.505Z,5.32
2022-08-14T11:08:52.209Z,5.50
2022-08-14T11:11:23.172Z,5.15
2022-08-14T11:13:51.257Z,5.60
2022-08-14T11:16:18.403Z,5.78
2022-08-14T11:18:50.626Z,5.35
2022-08-14T11:21:23.279Z,6.25
2022-08-14T11:23:53.736Z,5.60
2022-08-14T11:26:30.014Z,5.30
2022-08-14T11:29:00.286Z,5.60
2022-08-14T11:31:38.822Z,6.13
2022-08-14T11:34:29.702Z,5.72
2022-08-14T11:37:04.499Z,6.15
2022-08-14T11:39:45.380Z,5.93
2022-08-14T11:42:58.520Z,5.90
2022-08-14T11:45:11.486Z,6.03
2022-08-14T11:48:12.942Z,5.45
2022-08-14T11:50:37.930Z,5.80
2022-08-14T11:53:07.322Z,5.65
2022-08-14T11:55:39.575Z,5.68
2022-08-14T11:58:11.818Z,5.40
2022-08-14T12:00:49.721Z,5.57
2022-08-14T12:03:26.936Z,5.82
2022-08-14T12:06:07.192Z,6.00
2022-08-14T12:09:00.206Z,5.47
2022-08-14T12:11:44.379Z,5.85
2022-08-14T12:14:30.825Z,5.50
2022-08-14T12:17:12.311Z,5.68
2022-08-14T12:19:50.969Z,5.38
2022-08-14T12:22:30.078Z,5.10
2022-08-14T12:25:00.227Z,5.38
2022-08-14T12:27:59.473Z,4.97
2022-08-14T12:30:42.581Z,4.60
2022-08-14T12:33:47.063Z,4.50
2022-08-14T12:36:21.712Z,4.82
2022-08-14T12:38:54.159Z,4.68
2022-08-14T12:41:27.891Z,4.68
2022-08-14T12:44:02.517Z,4.63
2022-08-14T12:46:43.688Z,4.70
2022-08-14T12:49:17.746Z,4.67
2022-08-14T12:51:57.335Z,4.65
2022-08-14T12:54:28.056Z,4.75
2022-08-14T12:57:20.111Z,4.60
2022-08-14T12:59:50.581Z,4.60
2022-08-14T13:02:27.155Z,4.13
2022-08-14T13:04:56.597Z,4.20
2022-08-14T13:07:26.718Z,4.75
2022-08-14T13:10:00.831Z,5.57
2022-08-14T13:13:11.923Z,5.57
2022-08-14T13:15:41.781Z,5.10
2022-08-14T13:18:14.195Z,5.40
2022-08-14T13:20:49.422Z,5.85
2022-08-14T13:23:30.691Z,5.35
2022-08-14T13:26:00.495Z,6.20
2022-08-14T13:28:32.677Z,5.80
2022-08-14T13:31:11.352Z,6.10
2022-08-14T13:33:40.601Z,6.05
2022-08-14T13:36:24.568Z,6.50
2022-08-14T13:39:01.140Z,6.28
2022-08-14T13:41:34.525Z,5.90
2022-08-14T13:44:04.254Z,5.97
2022-08-14T13:46:31.473Z,5.50
2022-08-14T13:48:59.857Z,5.53
2022-08-14T13:51:35.664Z,5.40
2022-08-14T13:54:11.454Z,5.00
2022-08-14T13:56:40.793Z,5.20
2022-08-14T13:59:09.861Z,5.00
2022-08-14T14:01:43.475Z,5.78
2022-08-14T14:04:18.829Z,5.95
2022-08-14T14:06:50.804Z,5.13
2022-08-14T14:09:32.424Z,5.43
2022-08-14T14:12:38.538Z,5.20
2022-08-14T14:14:56.310Z,4.88
2022-08-14T14:17:25.842Z,5.88
2022-08-14T14:19:57.852Z,5.88
2022-08-14T14:23:01.002Z,5.75
2022-08-14T14:25:19.289Z,5.05
2022-08-14T14:27:49.058Z,5.60
2022-08-14T14:30:52.151Z,5.53
2022-08-14T14:33:42.428Z,5.65
2022-08-14T14:36:01.731Z,5.30
2022-08-14T14:38:32.673Z,5.47
2022-08-14T14:41:01.576Z,5.15
2022-08-14T14:43:29.111Z,5.72
2022-08-14T14:45:56.924Z,5.60
2022-08-14T14:48:29.881Z,6.00
2022-08-14T14:51:01.570Z,5.20
2022-08-14T14:53:38.721Z,6.18
2022-08-14T14:56:50.397Z,5.03
2022-08-14T14:58:58.427Z,5.35
2022-08-14T15:01:26.600Z,5.20
2022-08-14T15:03:55.156Z,5.88
2022-08-14T15:06:30.322Z,5.93
2022-08-14T15:09:00.319Z,5.10
2022-08-14T15:11:30.061Z,5.75
2022-08-14T15:13:58.129Z,5.32
2022-08-14T15:16:28.242Z,5.82
2022-08-14T15:18:55.451Z,5.38
2022-08-14T15:21:23.311Z,5.60
2022-08-14T15:23:52.704Z,5.47
2022-08-14T15:26:23.718Z,5.30
2022-08-14T15:29:03.287Z,5.65
2022-08-14T15:31:36.302Z,5.75
2022-08-14T15:34:44.860Z,5.45
2022-08-14T15:37:12.721Z,5.50
2022-08-14T15:39:41.855Z,5.63
2022-08-14T15:42:14.468Z,5.75
2022-08-14T15:44:57.923Z,5.50
2022-08-14T15:47:31.670Z,5.32
2022-08-14T15:50:08.902Z,5.55
2022-08-14T15:52:39.004Z,5.88
2022-08-14T15:55:12.951Z,5.65
2022-08-14T15:58:01.285Z,5.60
2022-08-14T16:00:51.766Z,5.10
2022-08-14T16:03:25.003Z,5.20
2022-08-14T16:06:02.095Z,5.55
2022-08-14T16:08:30.734Z,5.10
2022-08-14T16:11:05.408Z,6.00
2022-08-14T16:13:42.952Z,5.55
2022-08-14T16:16:47.771Z,6.15
2022-08-14T16:19:01.063Z,5.68
2022-08-14T16:21:31.922Z,5.88
2022-08-14T16:24:00.700Z,5.78
2022-08-14T16:26:30.038Z,5.85
2022-08-14T16:29:07.487Z,5.90
2022-08-14T16:31:41.245Z,5.57
2022-08-14T16:34:44.290Z,5.95
2022-08-14T16:37:01.670Z,6.63
2022-08-14T16:39:30.880Z,5.85
2022-08-14T16:42:00.503Z,6.07
2022-08-14T16:44:41.095Z,5.88
2022-08-14T16:47:14.145Z,6.82
2022-08-14T16:50:05.234Z,6.43
2022-08-14T16:52:44.756Z,6.30
2022-08-14T16:55:14.247Z,6.75
2022-08-14T16:57:50.675Z,7.13
2022-08-14T17:00:29.942Z,7.22
2022-08-14T17:03:08.553Z,6.22
2022-08-14T17:05:43.143Z,6.10
2022-08-14T17:08:32.995Z,5.45
2022-08-14T17:11:10.772Z,5.70
2022-08-14T17:13:59.701Z,5.25
2022-08-14T17:16:38.428Z,5.20
2022-08-14T17:19:13.576Z,5.20
2022-08-14T17:21:46.917Z,4.75
2022-08-14T17:24:56.935Z,5.20
2022-08-14T17:27:04.224Z,4.63
2022-08-14T17:29:34.374Z,5.20
2022-08-14T17:32:22.488Z,4.78
2022-08-14T17:37:39.075Z,4.93
2022-08-14T17:40:19.648Z,4.38
2022-08-14T17:42:51.052Z,5.07
2022-08-14T17:45:26.876Z,5.07
2022-08-14T17:47:59.485Z,4.65
2022-08-14T17:50:59.607Z,5.05
2022-08-14T17:53:30.551Z,4.55
2022-08-14T17:56:01.659Z,4.75
2022-08-14T17:58:41.840Z,4.38
2022-08-14T18:01:14.044Z,4.65
2022-08-14T18:03:52.408Z,4.75
2022-08-14T18:06:40.043Z,4.80
2022-08-14T18:09:25.336Z,4.55
2022-08-14T18:11:57.917Z,4.80
2022-08-14T18:14:32.642Z,5.05
2022-08-14T18:17:15.903Z,4.82
2022-08-14T18:19:45.045Z,5.53
2022-08-14T18:22:31.274Z,4.78
2022-08-14T18:25:02.234Z,5.28
2022-08-14T18:27:41.843Z,5.53
2022-08-14T18:30:32.144Z,5.35
2022-08-14T18:33:01.230Z,5.05
2022-08-14T18:35:46.289Z,5.78
2022-08-14T18:38:45.794Z,5.22
2022-08-14T18:41:35.400Z,5.18
2022-08-14T18:44:10.530Z,5.47
2022-08-14T18:47:14.773Z,5.60
2022-08-14T18:50:00.841Z,5.38
2022-08-14T18:52:34.698Z,5.43
2022-08-14T18:55:21.532Z,5.65
2022-08-14T18:57:55.026Z,5.30
2022-08-14T19:00:40.002Z,5.60
2022-08-14T19:03:30.984Z,5.55
2022-08-14T19:06:00.134Z,5.38
2022-08-14T19:08:38.021Z,5.80
2022-08-14T19:11:06.858Z,6.55
2022-08-14T19:13:48.651Z,6.10
2022-08-14T19:16:33.798Z,5.85
2022-08-14T19:19:03.769Z,5.50
2022-08-14T19:21:38.529Z,5.55
2022-08-14T19:24:27.061Z,6.07
2022-08-14T19:27:19.005Z,5.88
2022-08-14T19:29:47.763Z,6.28
2022-08-14T19:32:36.393Z,6.00
2022-08-14T19:35:48.607Z,5.80
2022-08-14T19:38:57.482Z,5.70
2022-08-14T19:41:33.855Z,5.90
2022-08-14T19:44:14.785Z,5.50
2022-08-14T19:47:01.066Z,5.60
2022-08-14T19:50:24.676Z,6.10
2022-08-14T19:52:37.130Z,6.20
2022-08-14T19:55:17.933Z,11.20
2022-08-14T19:57:57.911Z,27.27
2022-08-14T20:00:30.207Z,20.80
2022-08-14T20:03:09.835Z,11.95
2022-08-14T20:05:42.934Z,7.57
2022-08-14T20:09:05.947Z,6.15
2022-08-14T20:11:20.538Z,6.05
2022-08-14T20:14:04.059Z,6.30
2022-08-14T20:17:06.119Z,6.43
2022-08-14T20:19:37.591Z,6.72
2022-08-14T20:22:36.565Z,6.18
2022-08-14T20:24:54.621Z,6.45
2022-08-14T20:27:34.211Z,6.82
2022-08-14T20:30:29.877Z,6.20
2022-08-14T20:33:10.937Z,6.63
2022-08-14T20:35:51.323Z,6.07
2022-08-14T20:38:33.498Z,6.03
2022-08-14T20:41:09.779Z,6.38
2022-08-14T20:44:01.072Z,6.20
2022-08-14T20:46:42.426Z,5.95
2022-08-14T20:49:18.865Z,6.60
2022-08-14T20:52:00.126Z,6.15
2022-08-14T20:54:50.770Z,6.88
2022-08-14T20:57:20.921Z,6.90
2022-08-14T20:59:56.695Z,6.45
2022-08-14T21:02:46.871Z,6.53
2022-08-14T21:05:34.285Z,5.97
2022-08-14T21:08:09.631Z,6.57
2022-08-14T21:10:50.318Z,6.45
2022-08-14T21:14:17.804Z,6.25
2022-08-14T21:16:34.549Z,6.43
2022-08-14T21:18:58.391Z,6.50
2022-08-14T21:21:41.765Z,6.38
2022-08-14T21:24:38.716Z,6.28
2022-08-14T21:27:12.411Z,6.28
2022-08-14T21:29:53.866Z,6.25
2022-08-14T21:32:33.891Z,6.07
2022-08-14T21:35:08.757Z,6.15
2022-08-14T21:37:45.953Z,6.45
2022-08-14T21:40:41.105Z,6.03
2022-08-14T21:43:06.154Z,5.95
2022-08-14T21:45:45.384Z,6.15
2022-08-14T21:48:21.436Z,6.60
2022-08-14T21:50:59.940Z,6.70
2022-08-14T21:53:33.922Z,6.57
2022-08-14T21:56:03.919Z,6.45
2022-08-14T21:58:53.298Z,6.40
2022-08-14T22:01:20.513Z,6.60
2022-08-14T22:03:55.098Z,6.65
2022-08-14T22:06:29.032Z,6.68
2022-08-14T22:08:58.271Z,6.90
2022-08-14T22:11:27.342Z,6.80
2022-08-14T22:13:56.322Z,6.43
2022-08-14T22:17:02.107Z,6.88
2022-08-14T22:19:19.822Z,6.75
2022-08-14T22:21:51.092Z,6.68
2022-08-14T22:24:38.314Z,6.35
2022-08-14T22:27:11.158Z,6.28
2022-08-14T22:29:40.105Z,6.93
2022-08-14T22:32:11.330Z,6.55
2022-08-14T22:34:40.744Z,6.70
2022-08-14T22:37:08.669Z,6.40
2022-08-14T22:40:15.309Z,6.80
2022-08-14T22:42:25.447Z,6.72
2022-08-14T22:44:56.399Z,6.97
2022-08-14T22:47:24.580Z,6.68
2022-08-14T22:50:29.054Z,7.32
2022-08-14T22:52:41.423Z,6.60
2022-08-14T22:55:17.423Z,6.70
2022-08-14T22:57:44.661Z,6.13
2022-08-14T23:00:25.413Z,7.00
2022-08-14T23:03:00.520Z,6.85
2022-08-14T23:05:40.294Z,6.35
2022-08-14T23:08:57.651Z,6.22
2022-08-14T23:11:10.176Z,6.68
2022-08-14T23:13:43.642Z,6.95
2022-08-14T23:16:20.153Z,6.88
2022-08-14T23:18:53.484Z,7.07
2022-08-14T23:21:24.175Z,6.75
2022-08-14T23:23:54.921Z,6.55
2022-08-14T23:26:49.478Z,6.88
2022-08-14T23:29:12.393Z,6.80
2022-08-14T23:31:39.887Z,6.90
2022-08-14T23:34:10.925Z,7.03
2022-08-14T23:36:53.053Z,6.88
2022-08-14T23:39:32.749Z,6.47
2022-08-14T23:42:07.502Z,7.43
2022-08-14T23:44:36.975Z,7.22
2022-08-14T23:47:10.870Z,7.30
2022-08-14T23:50:01.242Z,6.75
2022-08-14T23:52:51.192Z,6.47
2022-08-14T23:55:15.406Z,6.90
2022-08-14T23:57:43.817Z,6.65
